Time;durP1;ratioP1;P1;durP2;ratioP2;P2;SDS_P1;SDS_P2;PMS_P1;PMS_P2;Temp;Humidity;BMP_temperature;BMP_pressure;BME280_temperature;BME280_humidity;BME280_pressure;Samples;Min_cycle;Max_cycle;Signal;HPM_P1;HPM_P2
2021/12/04 00:01:11;;;;;;;8.98;4.80;;;;;;;;;;5004321;28;20088;-57
2021/12/04 00:03:43;;;;;;;10.68;4.80;;;;;;;;;;5000764;28;20042;-54
2021/12/04 00:06:16;;;;;;;9.52;4.28;;;;;;;;;;5002243;28;20029;-55
2021/12/04 00:08:45;;;;;;;11.27;4.40;;;;;;;;;;5001927;28;20034;-56
2021/12/04 00:11:11;;;;;;;10.18;4.60;;;;;;;;;;5002517;28;20034;-56
2021/12/04 00:13:36;;;;;;;8.32;4.57;;;;;;;;;;5006856;28;20123;-55
2021/12/04 00:16:02;;;;;;;10.65;4.95;;;;;;;;;;4999474;28;20110;-58
2021/12/04 00:18:27;;;;;;;10.60;4.78;;;;;;;;;;5001029;28;20034;-56
2021/12/04 00:20:52;;;;;;;9.27;4.47;;;;;;;;;;5002138;28;20109;-57
2021/12/04 00:23:18;;;;;;;9.73;4.13;;;;;;;;;;4998793;28;20034;-54
2021/12/04 00:25:43;;;;;;;8.07;4.70;;;;;;;;;;5002838;28;20036;-57
2021/12/04 00:28:09;;;;;;;9.55;4.93;;;;;;;;;;4998155;28;20072;-54
2021/12/04 00:30:35;;;;;;;10.75;4.82;;;;;;;;;;5004384;28;20037;-57
2021/12/04 00:33:03;;;;;;;12.32;4.63;;;;;;;;;;5002500;28;20029;-57
2021/12/04 00:51:13;;;;;;;10.43;4.50;;;;;;;;;;5000413;28;20168;-54
2021/12/04 00:53:39;;;;;;;9.10;4.85;;;;;;;;;;4998405;28;20033;-57
2021/12/04 00:56:05;;;;;;;10.82;4.82;;;;;;;;;;5001406;28;20034;-56
2021/12/04 00:58:30;;;;;;;12.80;5.82;;;;;;;;;;5002916;28;20120;-57
2021/12/04 01:00:56;;;;;;;12.65;5.90;;;;;;;;;;5001992;28;20038;-57
2021/12/04 01:03:22;;;;;;;12.48;5.78;;;;;;;;;;4997370;28;20560;-57
2021/12/04 01:05:47;;;;;;;10.65;5.30;;;;;;;;;;5005408;28;20117;-57
2021/12/04 01:08:13;;;;;;;13.30;5.85;;;;;;;;;;5003278;28;20140;-54
2021/12/04 01:10:39;;;;;;;13.88;6.15;;;;;;;;;;4998593;28;20022;-56
2021/12/04 01:13:10;;;;;;;13.18;6.13;;;;;;;;;;4999908;28;20771;-56
2021/12/04 01:15:36;;;;;;;13.55;5.80;;;;;;;;;;5006031;28;20034;-57
2021/12/04 01:18:02;;;;;;;13.88;6.28;;;;;;;;;;4999934;28;20448;-57
2021/12/04 01:20:27;;;;;;;10.35;5.50;;;;;;;;;;4999007;28;20101;-56
2021/12/04 01:22:52;;;;;;;12.82;6.07;;;;;;;;;;5005099;28;20026;-58
2021/12/04 01:25:18;;;;;;;12.10;6.07;;;;;;;;;;5000296;28;20034;-57
2021/12/04 01:27:45;;;;;;;13.13;5.88;;;;;;;;;;5000010;28;20150;-57
2021/12/04 01:30:12;;;;;;;16.25;6.45;;;;;;;;;;4998929;28;20445;-54
2021/12/04 01:32:37;;;;;;;13.80;6.47;;;;;;;;;;5002074;28;20414;-57
2021/12/04 01:35:04;;;;;;;12.57;6.15;;;;;;;;;;4997154;28;20034;-55
2021/12/04 01:37:29;;;;;;;14.93;6.32;;;;;;;;;;5000129;28;20084;-58
2021/12/04 01:39:54;;;;;;;15.00;5.95;;;;;;;;;;5003277;28;20276;-58
2021/12/04 01:42:21;;;;;;;15.05;6.32;;;;;;;;;;4998877;28;20032;-59
2021/12/04 01:44:48;;;;;;;13.63;6.20;;;;;;;;;;5000729;28;20026;-59
2021/12/04 01:47:16;;;;;;;13.05;6.47;;;;;;;;;;5001454;28;20371;-59
2021/12/04 01:49:41;;;;;;;18.08;6.13;;;;;;;;;;4999314;28;20080;-60
2021/12/04 01:52:08;;;;;;;13.50;6.15;;;;;;;;;;5002577;28;20025;-59
2021/12/04 01:54:34;;;;;;;11.98;6.25;;;;;;;;;;5004399;28;20034;-59
2021/12/04 01:57:00;;;;;;;11.88;6.18;;;;;;;;;;5004723;28;20034;-60
2021/12/04 01:59:28;;;;;;;12.40;5.13;;;;;;;;;;4997653;28;20080;-60
2021/12/04 02:01:54;;;;;;;13.68;5.85;;;;;;;;;;5004157;28;20128;-60
2021/12/04 02:04:20;;;;;;;10.68;5.75;;;;;;;;;;5002370;28;20036;-60
2021/12/04 02:06:45;;;;;;;11.95;5.93;;;;;;;;;;5002577;28;20077;-60
2021/12/04 02:09:12;;;;;;;12.93;6.22;;;;;;;;;;5001317;28;20033;-60
2021/12/04 02:11:37;;;;;;;10.90;5.60;;;;;;;;;;5002210;28;20038;-59
2021/12/04 02:14:03;;;;;;;13.15;5.97;;;;;;;;;;5003504;28;20499;-59
2021/12/04 02:16:28;;;;;;;10.23;5.68;;;;;;;;;;4998963;28;20028;-60
2021/12/04 02:18:54;;;;;;;10.88;5.20;;;;;;;;;;5008179;28;20028;-60
2021/12/04 02:21:20;;;;;;;9.23;5.07;;;;;;;;;;5001128;28;20515;-60
2021/12/04 02:23:46;;;;;;;10.15;5.63;;;;;;;;;;4998869;28;20476;-60
2021/12/04 02:26:13;;;;;;;11.90;5.30;;;;;;;;;;4997266;28;20041;-59
2021/12/04 02:28:42;;;;;;;10.32;4.53;;;;;;;;;;5002867;28;20022;-59
2021/12/04 02:31:07;;;;;;;9.63;5.07;;;;;;;;;;4998068;28;20046;-59
2021/12/04 02:33:32;;;;;;;9.85;4.60;;;;;;;;;;4998243;28;20081;-58
2021/12/04 02:35:58;;;;;;;10.27;4.72;;;;;;;;;;5003742;28;20029;-59
2021/12/04 02:38:26;;;;;;;8.82;4.03;;;;;;;;;;5000647;28;20033;-59
2021/12/04 02:40:53;;;;;;;8.10;4.30;;;;;;;;;;4998469;28;20034;-59
2021/12/04 02:43:19;;;;;;;9.57;4.22;;;;;;;;;;5002004;28;20018;-59
2021/12/04 02:45:45;;;;;;;9.93;4.70;;;;;;;;;;5001813;28;20473;-58
2021/12/04 02:48:11;;;;;;;9.45;4.40;;;;;;;;;;4996821;28;20036;-58
2021/12/04 02:50:38;;;;;;;8.45;4.38;;;;;;;;;;5000367;28;20480;-58
2021/12/04 02:53:03;;;;;;;9.30;4.70;;;;;;;;;;5002037;28;20030;-59
2021/12/04 02:55:29;;;;;;;8.20;4.13;;;;;;;;;;4998958;28;20022;-57
2021/12/04 02:57:54;;;;;;;6.90;3.72;;;;;;;;;;5000163;28;20092;-59
2021/12/04 03:00:24;;;;;;;10.75;4.78;;;;;;;;;;4999164;28;20563;-58
2021/12/04 03:02:50;;;;;;;9.80;3.47;;;;;;;;;;4999559;28;20037;-59
2021/12/04 03:05:23;;;;;;;6.65;3.13;;;;;;;;;;4997383;28;20019;-59
2021/12/04 03:07:48;;;;;;;5.43;3.33;;;;;;;;;;4999854;28;20184;-59
2021/12/04 03:10:14;;;;;;;6.10;3.20;;;;;;;;;;4995522;28;20132;-58
2021/12/04 03:12:41;;;;;;;5.28;3.13;;;;;;;;;;4997697;28;20030;-58
2021/12/04 03:15:07;;;;;;;3.75;2.58;;;;;;;;;;5000187;28;20453;-58
2021/12/04 03:17:33;;;;;;;5.22;3.53;;;;;;;;;;4997865;28;20038;-57
2021/12/04 03:19:58;;;;;;;4.97;2.85;;;;;;;;;;4998462;28;20477;-59
2021/12/04 03:22:24;;;;;;;3.95;2.67;;;;;;;;;;5000852;28;20061;-58
2021/12/04 03:24:51;;;;;;;4.10;2.35;;;;;;;;;;4999092;28;20022;-59
2021/12/04 03:27:18;;;;;;;4.20;2.80;;;;;;;;;;4996982;28;20034;-57
2021/12/04 03:29:56;;;;;;;4.35;2.30;;;;;;;;;;4999574;28;20074;-58
2021/12/04 03:35:22;;;;;;;3.45;2.22;;;;;;;;;;4996578;28;20089;-58
2021/12/04 03:40:53;;;;;;;3.00;1.77;;;;;;;;;;5000788;28;20036;-58
2021/12/04 03:43:19;;;;;;;4.05;2.00;;;;;;;;;;5002015;28;20113;-59
2021/12/04 03:45:47;;;;;;;3.15;2.10;;;;;;;;;;5001723;28;20109;-59
2021/12/04 03:50:57;;;;;;;3.58;2.22;;;;;;;;;;4999686;28;20657;-59
2021/12/04 03:53:22;;;;;;;3.25;2.00;;;;;;;;;;5005044;28;20030;-59
2021/12/04 03:55:49;;;;;;;2.83;1.95;;;;;;;;;;4998704;28;20428;-59
2021/12/04 03:58:15;;;;;;;2.90;1.65;;;;;;;;;;4998746;28;20030;-60
2021/12/04 04:00:40;;;;;;;2.75;1.98;;;;;;;;;;5004459;28;20037;-60
2021/12/04 04:03:06;;;;;;;2.85;1.60;;;;;;;;;;5002150;28;20034;-59
2021/12/04 04:05:31;;;;;;;2.47;1.58;;;;;;;;;;5001992;28;20511;-59
2021/12/04 04:07:57;;;;;;;2.20;1.75;;;;;;;;;;5002539;28;20469;-58
2021/12/04 04:10:22;;;;;;;2.13;1.42;;;;;;;;;;4998203;28;20420;-58
2021/12/04 04:12:48;;;;;;;1.75;1.55;;;;;;;;;;5002237;28;20038;-59
2021/12/04 04:15:15;;;;;;;1.75;1.30;;;;;;;;;;5003015;28;20025;-59
2021/12/04 04:17:43;;;;;;;1.63;1.40;;;;;;;;;;5003883;28;20264;-59
2021/12/04 04:20:18;;;;;;;2.35;1.70;;;;;;;;;;5001490;28;20034;-59
2021/12/04 04:22:45;;;;;;;1.25;1.00;;;;;;;;;;4996377;28;20399;-59
2021/12/04 04:25:13;;;;;;;2.78;2.08;;;;;;;;;;5001549;28;20305;-60
2021/12/04 04:27:38;;;;;;;1.33;1.10;;;;;;;;;;4999745;28;20103;-59
2021/12/04 04:30:07;;;;;;;1.48;1.10;;;;;;;;;;4997718;28;20026;-60
2021/12/04 04:32:33;;;;;;;1.77;1.67;;;;;;;;;;4998947;28;20457;-59
2021/12/04 04:35:07;;;;;;;0.95;0.90;;;;;;;;;;5002037;28;20492;-59
2021/12/04 04:37:46;;;;;;;1.58;0.95;;;;;;;;;;4995734;28;20405;-58
2021/12/04 04:57:31;;;;;;;0.98;0.90;;;;;;;;;;5003730;28;20036;-58
2021/12/04 05:15:19;;;;;;;0.90;0.90;;;;;;;;;;5003998;28;20117;-58
2021/12/04 05:20:20;;;;;;;0.70;0.70;;;;;;;;;;4997956;28;20508;-58
2021/12/04 05:22:46;;;;;;;0.75;0.75;;;;;;;;;;5005079;28;20387;-59
2021/12/04 05:25:12;;;;;;;0.73;0.68;;;;;;;;;;5003604;28;20036;-58
2021/12/04 05:27:37;;;;;;;0.93;0.60;;;;;;;;;;5003613;28;20025;-58
2021/12/04 05:30:05;;;;;;;0.60;0.60;;;;;;;;;;5005722;28;20033;-59
2021/12/04 05:32:30;;;;;;;0.63;0.63;;;;;;;;;;4998635;28;20026;-59
2021/12/04 05:34:56;;;;;;;0.77;0.77;;;;;;;;;;5002231;28;20120;-59
2021/12/04 05:37:21;;;;;;;0.50;0.50;;;;;;;;;;4999497;28;20054;-59
2021/12/04 05:39:47;;;;;;;0.32;0.32;;;;;;;;;;4997563;28;20084;-59
2021/12/04 05:42:12;;;;;;;0.65;0.65;;;;;;;;;;5001156;28;24569;-59
2021/12/04 05:44:39;;;;;;;0.80;0.80;;;;;;;;;;5004264;28;20476;-58
2021/12/04 05:47:14;;;;;;;0.70;0.70;;;;;;;;;;4999126;28;20025;-58
2021/12/04 05:55:12;;;;;;;0.50;0.50;;;;;;;;;;5001804;28;20032;-58
2021/12/04 05:57:38;;;;;;;0.60;0.40;;;;;;;;;;4999555;28;20030;-59
2021/12/04 06:00:06;;;;;;;0.75;0.75;;;;;;;;;;5000469;28;20029;-59
2021/12/04 06:02:32;;;;;;;0.40;0.40;;;;;;;;;;4997950;28;20044;-60
2021/12/04 06:04:57;;;;;;;0.45;0.45;;;;;;;;;;4998498;28;20022;-59
2021/12/04 06:07:23;;;;;;;0.50;0.50;;;;;;;;;;5003137;28;20026;-59
2021/12/04 06:09:48;;;;;;;0.57;0.57;;;;;;;;;;5001125;28;20028;-60
2021/12/04 06:12:14;;;;;;;1.80;0.70;;;;;;;;;;5000289;28;20026;-59
2021/12/04 06:14:39;;;;;;;0.52;0.52;;;;;;;;;;5001200;28;20116;-59
2021/12/04 06:17:05;;;;;;;0.63;0.52;;;;;;;;;;5004026;28;20052;-58
2021/12/04 06:25:00;;;;;;;0.55;0.55;;;;;;;;;;5003438;28;20452;-60
2021/12/04 06:27:25;;;;;;;0.40;0.40;;;;;;;;;;4999748;28;20041;-58
2021/12/04 06:29:51;;;;;;;0.60;0.60;;;;;;;;;;5001360;28;20114;-59
2021/12/04 06:32:16;;;;;;;0.80;0.50;;;;;;;;;;4997412;28;20083;-59
2021/12/04 06:34:42;;;;;;;0.43;0.43;;;;;;;;;;5005141;28;20108;-59
2021/12/04 06:37:08;;;;;;;0.50;0.50;;;;;;;;;;5002286;28;20604;-59
2021/12/04 06:39:33;;;;;;;0.80;0.80;;;;;;;;;;4996954;28;20440;-59
2021/12/04 06:41:59;;;;;;;0.68;0.60;;;;;;;;;;5001221;28;20030;-60
2021/12/04 06:44:25;;;;;;;0.90;0.90;;;;;;;;;;5005604;28;20038;-59
2021/12/04 06:46:51;;;;;;;0.73;0.73;;;;;;;;;;4998632;28;20432;-60
2021/12/04 06:49:24;;;;;;;0.60;0.60;;;;;;;;;;4999611;28;20045;-60
2021/12/04 06:51:54;;;;;;;0.70;0.70;;;;;;;;;;5004185;28;20030;-59
2021/12/04 06:54:26;;;;;;;0.77;0.77;;;;;;;;;;4999161;28;20477;-59
2021/12/04 06:56:51;;;;;;;1.52;0.70;;;;;;;;;;5000148;28;20107;-60
2021/12/04 06:59:30;;;;;;;0.70;0.70;;;;;;;;;;4998599;28;20022;-59
2021/12/04 07:01:55;;;;;;;0.60;0.60;;;;;;;;;;4998009;28;20409;-59
2021/12/04 07:04:21;;;;;;;0.70;0.70;;;;;;;;;;4999888;28;20104;-60
2021/12/04 07:06:48;;;;;;;0.68;0.68;;;;;;;;;;5000193;28;20042;-60
2021/12/04 07:09:14;;;;;;;0.60;0.60;;;;;;;;;;5003213;28;20021;-60
2021/12/04 07:11:39;;;;;;;0.80;0.80;;;;;;;;;;4996225;28;20500;-60
2021/12/04 07:14:05;;;;;;;0.70;0.70;;;;;;;;;;5002445;28;20289;-62
2021/12/04 07:16:31;;;;;;;0.60;0.60;;;;;;;;;;5001949;28;20549;-61
2021/12/04 07:18:57;;;;;;;1.20;1.05;;;;;;;;;;4998941;28;20026;-59
2021/12/04 07:21:23;;;;;;;1.10;0.88;;;;;;;;;;4996319;28;20026;-59
2021/12/04 07:23:49;;;;;;;2.25;1.02;;;;;;;;;;5002431;28;20123;-60
2021/12/04 07:26:14;;;;;;;0.80;0.80;;;;;;;;;;4999296;28;20562;-60
2021/12/04 07:28:40;;;;;;;1.20;1.10;;;;;;;;;;5000368;28;20018;-58
2021/12/04 07:31:06;;;;;;;2.90;0.98;;;;;;;;;;5000509;28;20026;-58
2021/12/04 07:33:31;;;;;;;1.85;1.00;;;;;;;;;;5000840;28;20056;-58
2021/12/04 07:35:59;;;;;;;0.90;0.90;;;;;;;;;;5007801;28;20021;-60
2021/12/04 07:38:25;;;;;;;1.08;0.90;;;;;;;;;;5004062;28;20037;-59
2021/12/04 07:40:51;;;;;;;0.90;0.80;;;;;;;;;;5003570;28;20477;-60
2021/12/04 07:43:16;;;;;;;2.13;1.02;;;;;;;;;;5003948;28;20033;-58
2021/12/04 07:45:42;;;;;;;2.55;1.52;;;;;;;;;;5001274;28;20030;-60
2021/12/04 07:48:07;;;;;;;2.22;1.00;;;;;;;;;;5001578;28;20029;-58
2021/12/04 07:50:33;;;;;;;1.65;1.40;;;;;;;;;;5006182;28;20030;-58
2021/12/04 07:52:59;;;;;;;2.95;1.58;;;;;;;;;;4998701;28;20026;-58
2021/12/04 07:55:26;;;;;;;2.33;1.38;;;;;;;;;;5007866;28;20341;-58
2021/12/04 07:57:52;;;;;;;3.33;1.80;;;;;;;;;;5007646;28;20030;-59
2021/12/04 08:00:19;;;;;;;1.45;1.30;;;;;;;;;;4997099;28;20022;-58
2021/12/04 08:02:45;;;;;;;4.30;2.90;;;;;;;;;;5004957;28;20029;-59
2021/12/04 08:05:11;;;;;;;5.28;3.63;;;;;;;;;;5007400;28;20037;-59
2021/12/04 08:07:38;;;;;;;3.47;1.98;;;;;;;;;;5000733;28;20080;-59
2021/12/04 08:10:05;;;;;;;10.60;5.65;;;;;;;;;;5002029;28;20065;-59
2021/12/04 08:12:31;;;;;;;8.13;3.90;;;;;;;;;;5006549;28;20022;-59
2021/12/04 08:14:56;;;;;;;1.63;1.17;;;;;;;;;;5002355;28;20080;-60
2021/12/04 08:17:22;;;;;;;6.03;3.13;;;;;;;;;;5000745;28;20061;-59
2021/12/04 08:19:47;;;;;;;10.70;3.88;;;;;;;;;;5003604;28;20037;-59
2021/12/04 08:22:13;;;;;;;3.47;1.60;;;;;;;;;;5003330;28;20116;-58
2021/12/04 08:24:40;;;;;;;3.45;1.65;;;;;;;;;;5003148;28;20018;-59
2021/12/04 08:27:08;;;;;;;6.93;3.42;;;;;;;;;;5001385;28;20026;-59
2021/12/04 08:29:33;;;;;;;50.60;3.03;;;;;;;;;;5004376;28;20030;-59
2021/12/04 08:31:59;;;;;;;4.72;2.10;;;;;;;;;;5004192;28;20025;-59
2021/12/04 08:34:24;;;;;;;6.60;2.80;;;;;;;;;;5000888;28;20715;-59
2021/12/04 08:36:52;;;;;;;3.60;2.17;;;;;;;;;;5001916;28;20032;-59
2021/12/04 08:39:18;;;;;;;3.00;1.90;;;;;;;;;;5005637;28;20615;-59
2021/12/04 08:41:44;;;;;;;2.05;1.60;;;;;;;;;;5003405;28;20439;-59
2021/12/04 08:44:09;;;;;;;4.72;2.72;;;;;;;;;;5004010;28;20034;-59
2021/12/04 08:46:37;;;;;;;6.03;2.70;;;;;;;;;;5004646;28;20101;-59
2021/12/04 08:49:04;;;;;;;4.88;2.58;;;;;;;;;;4997475;28;20121;-59
2021/12/04 08:51:30;;;;;;;6.38;2.40;;;;;;;;;;4997313;28;20388;-59
2021/12/04 08:53:55;;;;;;;5.78;2.53;;;;;;;;;;5002500;28;20046;-59
2021/12/04 08:56:21;;;;;;;3.78;2.03;;;;;;;;;;4995500;28;20471;-59
2021/12/04 08:58:47;;;;;;;2.05;1.50;;;;;;;;;;5000008;28;20034;-59
2021/12/04 09:01:22;;;;;;;7.60;2.90;;;;;;;;;;5005049;28;20477;-60
2021/12/04 09:03:48;;;;;;;2.80;1.67;;;;;;;;;;4994940;28;20029;-58
2021/12/04 09:06:16;;;;;;;1.52;1.40;;;;;;;;;;5002229;28;20311;-59
2021/12/04 09:08:42;;;;;;;1.63;1.27;;;;;;;;;;5000272;28;20117;-58
2021/12/04 09:11:14;;;;;;;2.00;1.38;;;;;;;;;;5000986;28;20363;-59
2021/12/04 09:13:41;;;;;;;2.92;1.80;;;;;;;;;;5001389;28;20116;-59
2021/12/04 09:16:07;;;;;;;1.23;1.13;;;;;;;;;;5004128;28;20109;-58
2021/12/04 09:18:34;;;;;;;2.13;1.58;;;;;;;;;;5001458;28;20025;-59
2021/12/04 09:21:00;;;;;;;2.80;1.88;;;;;;;;;;4999735;28;20504;-59
2021/12/04 09:23:32;;;;;;;5.82;2.60;;;;;;;;;;5000097;28;20035;-58
2021/12/04 09:26:01;;;;;;;1.42;1.20;;;;;;;;;;5002476;28;20046;-59
2021/12/04 09:28:36;;;;;;;4.47;2.08;;;;;;;;;;5000329;28;20069;-58
2021/12/04 10:01:51;;;;;;;7.75;3.92;;;;;;;;;;5002019;28;20113;-58
2021/12/04 10:12:29;;;;;;;;;;;;;;;;;;;;;
2021/12/04 10:20:18;;;;;;;18.15;10.77;;;;;;;;;;4993864;28;20095;-57
2021/12/04 10:34:33;;;;;;;22.38;10.63;;;;;;;;;;4987324;28;20087;-56
2021/12/04 10:37:10;;;;;;;27.08;11.18;;;;;;;;;;5001612;28;20037;-57
2021/12/04 10:39:36;;;;;;;6.00;2.20;;;;;;;;;;5000470;28;20042;-56
2021/12/04 10:42:07;;;;;;;16.48;8.95;;;;;;;;;;4994805;28;20045;-58
2021/12/04 10:44:32;;;;;;;11.77;6.00;;;;;;;;;;4998532;28;20102;-56
2021/12/04 10:47:05;;;;;;;20.60;9.23;;;;;;;;;;4999745;28;20022;-56
2021/12/04 10:49:38;;;;;;;12.52;6.07;;;;;;;;;;4997835;28;20052;-57
2021/12/04 10:52:05;;;;;;;23.17;11.60;;;;;;;;;;4995335;28;20593;-58
2021/12/04 10:54:39;;;;;;;16.20;7.90;;;;;;;;;;4999550;28;20077;-56
2021/12/04 11:02:29;;;;;;;1.73;1.48;;;;;;;;;;4997557;28;20026;-57
2021/12/04 11:05:13;;;;;;;2.00;1.60;;;;;;;;;;4999103;28;20034;-56
2021/12/04 11:20:16;;;;;;;0.93;0.90;;;;;;;;;;5002331;28;20037;-56
2021/12/04 11:43:34;;;;;;;1.15;1.05;;;;;;;;;;5001908;28;20507;-56
2021/12/04 11:46:17;;;;;;;0.75;0.75;;;;;;;;;;5004075;28;20365;-55
2021/12/04 11:48:44;;;;;;;2.05;1.85;;;;;;;;;;5002944;28;20060;-54
2021/12/04 11:51:21;;;;;;;1.17;1.00;;;;;;;;;;4997248;28;20041;-55
2021/12/04 11:53:48;;;;;;;2.50;0.98;;;;;;;;;;5003458;28;20045;-57
2021/12/04 11:56:19;;;;;;;1.63;0.93;;;;;;;;;;4996178;28;20041;-54
2021/12/04 11:58:47;;;;;;;1.05;0.95;;;;;;;;;;5003708;28;20111;-57
2021/12/04 12:01:32;;;;;;;1.20;1.10;;;;;;;;;;5001611;28;20389;-57
2021/12/04 12:04:02;;;;;;;1.52;1.30;;;;;;;;;;5007159;28;20033;-57
2021/12/04 12:06:40;;;;;;;2.63;1.58;;;;;;;;;;4999866;28;20417;-56
2021/12/04 12:09:19;;;;;;;1.27;1.17;;;;;;;;;;5001843;28;20573;-56
2021/12/04 12:11:54;;;;;;;2.43;1.80;;;;;;;;;;5002593;28;20022;-56
2021/12/04 12:14:36;;;;;;;1.80;1.08;;;;;;;;;;5005042;28;20076;-56
2021/12/04 12:17:02;;;;;;;2.28;1.73;;;;;;;;;;5004446;28;20034;-58
2021/12/04 12:19:42;;;;;;;2.67;1.65;;;;;;;;;;5001066;28;20300;-56
2021/12/04 12:22:23;;;;;;;1.95;1.25;;;;;;;;;;5002690;28;20022;-57
2021/12/04 12:27:28;;;;;;;1.50;1.40;;;;;;;;;;5005251;28;20072;-56
2021/12/04 12:33:40;;;;;;;2.40;1.70;;;;;;;;;;5000647;28;20044;-58
2021/12/04 12:36:04;;;;;;;2.33;1.70;;;;;;;;;;4995410;28;20042;-58
2021/12/04 12:38:44;;;;;;;1.63;1.30;;;;;;;;;;5001317;28;20036;-58
2021/12/04 12:41:11;;;;;;;1.48;1.23;;;;;;;;;;5012207;28;20026;-58
2021/12/04 12:43:49;;;;;;;2.17;1.55;;;;;;;;;;5001584;28;20476;-58
2021/12/04 12:46:16;;;;;;;3.45;1.85;;;;;;;;;;4999725;28;20030;-57
2021/12/04 12:48:48;;;;;;;3.40;1.48;;;;;;;;;;4999666;28;20022;-57
2021/12/04 12:51:14;;;;;;;3.38;1.40;;;;;;;;;;5004951;28;20031;-57
2021/12/04 12:53:44;;;;;;;1.48;1.38;;;;;;;;;;4995876;28;20118;-56
2021/12/04 12:56:13;;;;;;;1.67;1.30;;;;;;;;;;5002470;28;20034;-57
2021/12/04 12:58:44;;;;;;;2.97;1.65;;;;;;;;;;5003225;28;20038;-58
2021/12/04 13:13:24;;;;;;;1.75;1.35;;;;;;;;;;5004148;28;20087;-58
2021/12/04 13:15:49;;;;;;;2.22;1.33;;;;;;;;;;5001997;28;20080;-59
2021/12/04 13:18:22;;;;;;;1.60;1.30;;;;;;;;;;4999964;28;20038;-59
2021/12/04 13:20:49;;;;;;;2.30;1.30;;;;;;;;;;4999859;28;20030;-59
2021/12/04 13:23:19;;;;;;;1.25;1.20;;;;;;;;;;5004381;28;20104;-59
2021/12/04 13:25:55;;;;;;;;;;;;;;;;;;5004007;28;20037;-59
2021/12/04 13:28:25;;;;;;;1.20;1.05;;;;;;;;;;4997735;28;19914;-59
2021/12/04 13:30:51;;;;;;;1.38;1.10;;;;;;;;;;5004181;28;20033;-58
2021/12/04 13:33:17;;;;;;;1.40;1.30;;;;;;;;;;5000776;28;20118;-58
2021/12/04 13:35:46;;;;;;;1.83;1.30;;;;;;;;;;5000240;28;20332;-58
2021/12/04 13:38:13;;;;;;;1.75;1.20;;;;;;;;;;4999522;28;20052;-58
2021/12/04 13:40:40;;;;;;;2.13;1.30;;;;;;;;;;4997311;28;20571;-59
2021/12/04 13:43:10;;;;;;;1.23;1.13;;;;;;;;;;4997069;28;20132;-59
2021/12/04 13:45:36;;;;;;;1.38;1.27;;;;;;;;;;5001868;28;20025;-59
2021/12/04 13:48:02;;;;;;;2.08;1.38;;;;;;;;;;4999751;28;20042;-60
2021/12/04 13:53:04;;;;;;;1.90;1.33;;;;;;;;;;4998944;28;20177;-58
2021/12/04 13:55:31;;;;;;;2.33;1.35;;;;;;;;;;5000266;28;20029;-59
2021/12/04 13:57:57;;;;;;;1.45;1.20;;;;;;;;;;4998785;28;20037;-59
2021/12/04 14:00:24;;;;;;;0.93;0.93;;;;;;;;;;4999050;28;20029;-59
2021/12/04 14:02:50;;;;;;;3.20;1.23;;;;;;;;;;5001526;28;20046;-58
2021/12/04 14:05:21;;;;;;;1.20;1.10;;;;;;;;;;5001276;28;20033;-58
2021/12/04 14:07:52;;;;;;;1.38;1.10;;;;;;;;;;4997484;28;20058;-58
2021/12/04 14:10:21;;;;;;;1.45;1.10;;;;;;;;;;4993496;28;20034;-58
2021/12/04 14:12:47;;;;;;;1.58;1.20;;;;;;;;;;5000859;28;20125;-58
2021/12/04 14:15:16;;;;;;;1.23;1.00;;;;;;;;;;5004372;28;20029;-57
2021/12/04 14:17:42;;;;;;;1.30;1.10;;;;;;;;;;4998639;28;20042;-58
2021/12/04 14:20:12;;;;;;;1.15;1.05;;;;;;;;;;5001950;28;20093;-57
2021/12/04 14:22:49;;;;;;;1.52;1.42;;;;;;;;;;4995571;28;20065;-57
2021/12/04 14:25:16;;;;;;;1.15;1.05;;;;;;;;;;4994578;28;20026;-58
2021/12/04 14:27:41;;;;;;;2.20;1.10;;;;;;;;;;4997911;28;20022;-58
2021/12/04 14:30:10;;;;;;;1.10;1.10;;;;;;;;;;4999438;28;20026;-58
2021/12/04 14:32:45;;;;;;;1.75;1.50;;;;;;;;;;4999138;28;20022;-58
2021/12/04 14:35:16;;;;;;;2.47;1.42;;;;;;;;;;4999290;28;20105;-58
2021/12/04 14:37:44;;;;;;;1.33;1.23;;;;;;;;;;5003215;28;20397;-58
2021/12/04 14:40:13;;;;;;;1.20;1.10;;;;;;;;;;4994904;28;20028;-58
2021/12/04 14:42:39;;;;;;;4.20;2.30;;;;;;;;;;5001430;28;20080;-59
2021/12/04 14:45:17;;;;;;;4.15;2.03;;;;;;;;;;5000038;28;20493;-58
2021/12/04 14:47:46;;;;;;;2.85;1.85;;;;;;;;;;5003887;28;20034;-59
2021/12/04 14:50:16;;;;;;;3.70;2.10;;;;;;;;;;4998393;28;20058;-58
2021/12/04 14:52:42;;;;;;;4.60;3.08;;;;;;;;;;4996625;28;20034;-58
2021/12/04 14:55:14;;;;;;;6.07;4.10;;;;;;;;;;5002676;28;20041;-58
2021/12/04 14:57:41;;;;;;;3.22;2.40;;;;;;;;;;5003010;28;20041;-59
2021/12/04 15:00:08;;;;;;;2.72;2.17;;;;;;;;;;4994743;28;20034;-58
2021/12/04 15:02:34;;;;;;;2.45;1.73;;;;;;;;;;4997180;28;20030;-57
2021/12/04 15:05:00;;;;;;;2.75;1.90;;;;;;;;;;5006952;28;20822;-58
2021/12/04 15:07:32;;;;;;;6.70;2.90;;;;;;;;;;4995253;28;20053;-57
2021/12/04 15:09:59;;;;;;;5.15;3.20;;;;;;;;;;4997417;28;20100;-57
2021/12/04 15:12:33;;;;;;;6.28;2.72;;;;;;;;;;5000994;28;20029;-57
2021/12/04 15:15:03;;;;;;;1.23;1.05;;;;;;;;;;4999097;28;20430;-56
2021/12/04 15:17:29;;;;;;;1.65;1.40;;;;;;;;;;5000811;28;20030;-57
2021/12/04 15:20:00;;;;;;;12.68;5.80;;;;;;;;;;5001073;28;20097;-56
2021/12/04 15:22:41;;;;;;;3.28;1.23;;;;;;;;;;4999617;28;20029;-57
2021/12/04 15:25:24;;;;;;;1.70;1.50;;;;;;;;;;4997809;28;20337;-57
2021/12/04 15:27:49;;;;;;;1.70;1.30;;;;;;;;;;4999110;28;20408;-57
2021/12/04 15:30:18;;;;;;;4.43;2.65;;;;;;;;;;4996944;28;20030;-57
2021/12/04 15:32:44;;;;;;;6.80;4.38;;;;;;;;;;4996883;28;20065;-57
2021/12/04 15:38:02;;;;;;;3.13;2.28;;;;;;;;;;4998934;28;20129;-57
2021/12/04 15:40:31;;;;;;;5.10;1.70;;;;;;;;;;4994236;28;20029;-57
2021/12/04 15:53:17;;;;;;;1.38;1.20;;;;;;;;;;5001831;28;20125;-57
2021/12/04 15:55:52;;;;;;;2.55;1.25;;;;;;;;;;5004448;28;20104;-57
2021/12/04 15:58:21;;;;;;;1.52;1.20;;;;;;;;;;5000081;28;20037;-57
2021/12/04 16:00:55;;;;;;;1.90;1.20;;;;;;;;;;5005118;28;20030;-57
2021/12/04 16:03:24;;;;;;;1.10;1.00;;;;;;;;;;5003392;28;20523;-58
2021/12/04 16:05:53;;;;;;;2.63;1.52;;;;;;;;;;5006023;28;20034;-57
2021/12/04 16:08:22;;;;;;;2.60;1.67;;;;;;;;;;5003370;28;20298;-57
2021/12/04 16:10:49;;;;;;;2.55;1.40;;;;;;;;;;4997868;28;20174;-57
2021/12/04 16:13:27;;;;;;;3.40;1.92;;;;;;;;;;5004453;28;20041;-57
2021/12/04 16:15:54;;;;;;;1.75;1.25;;;;;;;;;;5002858;28;20033;-58
2021/12/04 16:18:22;;;;;;;2.85;1.80;;;;;;;;;;5002532;28;20041;-56
2021/12/04 16:20:49;;;;;;;5.00;3.00;;;;;;;;;;5001629;28;20049;-57
2021/12/04 16:23:15;;;;;;;2.03;1.30;;;;;;;;;;5004003;28;20038;-57
2021/12/04 16:25:42;;;;;;;2.67;2.03;;;;;;;;;;5007177;28;20368;-56
2021/12/04 16:36:07;;;;;;;2.90;2.17;;;;;;;;;;5003065;28;20454;-56
2021/12/04 16:38:30;;;;;;;3.03;1.80;;;;;;;;;;4999958;28;20598;-56
2021/12/04 16:40:57;;;;;;;2.42;1.63;;;;;;;;;;5002908;28;20109;-56
2021/12/04 16:43:35;;;;;;;2.33;1.35;;;;;;;;;;5004372;28;20531;-56
2021/12/04 16:46:12;;;;;;;1.30;1.20;;;;;;;;;;5000253;28;20054;-55
2021/12/04 16:48:44;;;;;;;2.05;1.50;;;;;;;;;;4998524;28;20696;-56
2021/12/04 16:59:05;;;;;;;;;;;;;;;;;;4998885;28;20095;-56
2021/12/04 17:01:33;;;;;;;1.40;1.30;;;;;;;;;;5002336;28;20007;-56
2021/12/04 17:03:58;;;;;;;3.08;1.48;;;;;;;;;;4999505;28;20499;-55
2021/12/04 17:06:24;;;;;;;1.33;1.10;;;;;;;;;;5001042;28;20021;-56
2021/12/04 17:08:50;;;;;;;2.20;1.65;;;;;;;;;;5002335;28;20117;-56
2021/12/04 17:11:16;;;;;;;1.92;1.30;;;;;;;;;;5002324;28;20073;-56
2021/12/04 17:13:44;;;;;;;0.80;0.80;;;;;;;;;;4998149;28;20117;-55
2021/12/04 17:16:12;;;;;;;0.93;0.90;;;;;;;;;;5003629;28;20244;-55
2021/12/04 17:18:46;;;;;;;1.33;1.20;;;;;;;;;;4996295;28;20068;-56
2021/12/04 17:21:12;;;;;;;2.08;1.63;;;;;;;;;;4997379;28;20109;-57
2021/12/04 17:23:38;;;;;;;2.45;1.38;;;;;;;;;;5000872;28;20022;-56
2021/12/04 17:26:03;;;;;;;1.83;1.30;;;;;;;;;;4997453;28;20034;-56
2021/12/04 17:28:31;;;;;;;1.40;1.30;;;;;;;;;;5005923;28;20034;-55
2021/12/04 17:30:57;;;;;;;54.63;13.35;;;;;;;;;;4999585;28;20458;-57
2021/12/04 17:33:23;;;;;;;4.63;2.00;;;;;;;;;;5001506;28;20053;-56
2021/12/04 17:35:48;;;;;;;1.80;1.00;;;;;;;;;;5005838;28;20032;-56
2021/12/04 17:38:14;;;;;;;2.15;1.40;;;;;;;;;;4999899;28;20057;-60
2021/12/04 17:40:39;;;;;;;1.80;1.30;;;;;;;;;;5002756;28;20026;-57
2021/12/04 17:43:05;;;;;;;1.45;1.08;;;;;;;;;;5005223;28;20018;-57
2021/12/04 17:45:33;;;;;;;2.00;1.50;;;;;;;;;;4999912;28;20026;-56
2021/12/04 17:47:59;;;;;;;1.40;1.30;;;;;;;;;;5001278;28;20388;-56
2021/12/04 17:50:27;;;;;;;2.67;1.42;;;;;;;;;;4999207;28;20065;-56
2021/12/04 17:52:57;;;;;;;0.93;0.93;;;;;;;;;;5002566;28;20034;-55
2021/12/04 17:55:24;;;;;;;3.78;1.38;;;;;;;;;;5000425;28;20018;-56
2021/12/04 17:57:51;;;;;;;3.55;1.90;;;;;;;;;;5000168;28;20365;-56
2021/12/04 18:00:24;;;;;;;2.72;1.83;;;;;;;;;;4996289;28;20493;-56
2021/12/04 18:02:51;;;;;;;2.47;1.17;;;;;;;;;;4997733;28;20453;-55
2021/12/04 18:05:24;;;;;;;4.78;2.20;;;;;;;;;;5001150;28;20276;-55
2021/12/04 18:07:51;;;;;;;1.70;1.30;;;;;;;;;;4999256;28;20140;-55
2021/12/04 18:10:17;;;;;;;1.48;1.33;;;;;;;;;;5000672;28;20500;-55
2021/12/04 18:12:53;;;;;;;2.28;2.05;;;;;;;;;;5000934;28;20026;-56
2021/12/04 18:15:36;;;;;;;2.10;1.20;;;;;;;;;;4995192;28;20034;-56
2021/12/04 18:18:02;;;;;;;3.78;1.50;;;;;;;;;;5001469;28;20055;-58
2021/12/04 18:20:29;;;;;;;3.38;2.03;;;;;;;;;;5000662;28;20062;-56
2021/12/04 18:22:55;;;;;;;4.40;2.30;;;;;;;;;;4995717;28;20022;-56